createdAt,value
2022-09-23T00:01:37.554Z,100.00
2022-09-23T00:04:41.477Z,100.00
2022-09-23T00:07:44.553Z,100.00
2022-09-23T00:10:47.637Z,100.00
2022-09-23T00:13:52.766Z,100.00
2022-09-23T00:16:55.608Z,100.00
2022-09-23T00:19:58.244Z,100.00
2022-09-23T00:23:01.419Z,100.00
2022-09-23T00:26:06.201Z,100.00
2022-09-23T00:29:09.035Z,100.00
2022-09-23T00:32:11.543Z,100.00
2022-09-23T00:35:14.296Z,100.00
2022-09-23T00:38:17.220Z,100.00
2022-09-23T00:41:21.334Z,100.00
2022-09-23T00:44:48.652Z,100.00
2022-09-23T00:47:54.967Z,100.00
2022-09-23T00:50:57.522Z,100.00
2022-09-23T00:54:02.166Z,100.00
2022-09-23T00:57:05.721Z,100.00
2022-09-23T01:00:09.197Z,100.00
2022-09-23T01:03:12.030Z,100.00
2022-09-23T01:06:14.934Z,100.00
2022-09-23T01:09:18.253Z,100.00
2022-09-23T01:12:21.452Z,100.00
2022-09-23T01:15:39.162Z,100.00
2022-09-23T01:18:50.680Z,100.00
2022-09-23T01:21:57.011Z,100.00
2022-09-23T01:25:11.604Z,100.00
2022-09-23T01:28:40.876Z,100.00
2022-09-23T01:31:57.717Z,100.00
2022-09-23T01:35:15.207Z,100.00
2022-09-23T01:38:40.327Z,100.00
2022-09-23T01:42:09.589Z,100.00
2022-09-23T01:45:19.490Z,100.00
2022-09-23T01:48:43.168Z,100.00
2022-09-23T01:51:50.998Z,100.00
2022-09-23T01:55:02.256Z,100.00
2022-09-23T01:58:14.674Z,100.00
2022-09-23T02:01:23.797Z,100.00
2022-09-23T02:04:47.195Z,100.00
2022-09-23T02:07:57.783Z,100.00
2022-09-23T02:11:06.541Z,100.00
2022-09-23T02:14:35.908Z,100.00
2022-09-23T02:17:49.634Z,100.00
2022-09-23T02:20:59.263Z,100.00
2022-09-23T02:24:19.524Z,100.00
2022-09-23T02:27:31.280Z,100.00
2022-09-23T02:30:45.237Z,100.00
2022-09-23T02:34:09.237Z,100.00
2022-09-23T02:37:27.317Z,100.00
2022-09-23T02:40:40.338Z,100.00
2022-09-23T02:43:51.943Z,100.00
2022-09-23T02:46:55.097Z,100.00
2022-09-23T02:49:57.893Z,100.00
2022-09-23T02:53:01.139Z,100.00
2022-09-23T02:56:15.536Z,100.00
2022-09-23T02:59:20.300Z,100.00
2022-09-23T03:02:49.272Z,100.00
2022-09-23T03:05:58.941Z,100.00
2022-09-23T03:09:27.860Z,100.00
2022-09-23T03:13:00.480Z,100.00
2022-09-23T03:16:22.500Z,100.00
2022-09-23T03:19:37.883Z,100.00
2022-09-23T03:22:46.909Z,100.00
2022-09-23T03:25:54.051Z,100.00
2022-09-23T03:28:58.731Z,100.00
2022-09-23T03:32:01.469Z,100.00
2022-09-23T03:35:05.886Z,100.00
2022-09-23T03:38:17.296Z,100.00
2022-09-23T03:41:28.998Z,100.00
2022-09-23T03:44:39.692Z,100.00
2022-09-23T03:47:43.847Z,100.00
2022-09-23T03:50:46.297Z,100.00
2022-09-23T03:53:49.396Z,100.00
2022-09-23T03:56:52.000Z,100.00
2022-09-23T03:59:55.067Z,100.00
2022-09-23T04:02:57.527Z,100.00
2022-09-23T04:06:00.903Z,100.00
2022-09-23T04:09:03.551Z,100.00
2022-09-23T04:12:06.923Z,100.00
2022-09-23T04:15:09.922Z,100.00
2022-09-23T04:18:12.603Z,100.00
2022-09-23T04:21:15.488Z,100.00
2022-09-23T04:24:18.758Z,100.00
2022-09-23T04:27:21.276Z,100.00
2022-09-23T04:30:24.000Z,100.00
2022-09-23T04:33:26.682Z,100.00
2022-09-23T04:36:30.376Z,100.00
2022-09-23T04:39:32.794Z,100.00
2022-09-23T04:42:35.463Z,100.00
2022-09-23T04:45:37.819Z,100.00
2022-09-23T04:48:44.069Z,100.00
2022-09-23T04:51:46.687Z,100.00
2022-09-23T04:54:49.409Z,100.00
2022-09-23T04:57:53.752Z,100.00
2022-09-23T05:01:01.729Z,100.00
2022-09-23T05:04:11.023Z,100.00
2022-09-23T05:07:14.008Z,100.00
2022-09-23T05:10:17.780Z,100.00
2022-09-23T05:13:20.453Z,100.00
2022-09-23T05:16:24.349Z,100.00
2022-09-23T05:19:27.198Z,100.00
2022-09-23T05:22:30.682Z,100.00
2022-09-23T05:25:38.097Z,100.00
2022-09-23T05:28:41.031Z,100.00
2022-09-23T05:31:43.908Z,100.00
2022-09-23T05:34:46.674Z,100.00
2022-09-23T05:37:49.426Z,100.00
2022-09-23T05:41:00.732Z,100.00
2022-09-23T05:44:03.741Z,100.00
2022-09-23T05:47:06.602Z,100.00
2022-09-23T05:50:10.004Z,100.00
2022-09-23T05:53:12.462Z,100.00
2022-09-23T05:56:18.090Z,100.00
2022-09-23T05:59:20.569Z,100.00
2022-09-23T06:02:23.633Z,100.00
2022-09-23T06:05:26.515Z,100.00
2022-09-23T06:08:29.119Z,100.00
2022-09-23T06:11:34.190Z,100.00
2022-09-23T06:14:37.041Z,100.00
2022-09-23T06:17:39.768Z,100.00
2022-09-23T06:20:42.268Z,100.00
2022-09-23T06:23:45.717Z,100.00
2022-09-23T06:26:48.358Z,100.00
2022-09-23T06:29:52.535Z,100.00
2022-09-23T06:32:57.309Z,100.00
2022-09-23T06:36:01.943Z,100.00
2022-09-23T06:39:04.860Z,100.00
2022-09-23T06:42:07.920Z,99.14
2022-09-23T06:45:13.035Z,94.79
2022-09-23T06:48:15.735Z,93.86
2022-09-23T06:51:21.733Z,95.51
2022-09-23T06:54:25.423Z,95.58
2022-09-23T06:57:32.863Z,95.38
2022-09-23T07:00:36.288Z,96.54
2022-09-23T07:03:39.077Z,94.63
2022-09-23T07:06:41.922Z,94.30
2022-09-23T07:09:45.427Z,92.57
2022-09-23T07:12:48.198Z,92.18
2022-09-23T07:16:02.151Z,91.11
2022-09-23T07:19:05.363Z,86.90
2022-09-23T07:22:07.945Z,80.30
2022-09-23T07:25:12.198Z,75.66
2022-09-23T07:28:14.659Z,67.17
2022-09-23T07:31:29.687Z,60.45
2022-09-23T07:34:37.307Z,57.96
2022-09-23T07:37:40.099Z,56.31
2022-09-23T07:40:42.696Z,59.09
2022-09-23T07:43:46.964Z,59.04
2022-09-23T07:46:50.900Z,57.90
2022-09-23T07:49:54.144Z,52.88
2022-09-23T07:52:56.766Z,48.99
2022-09-23T07:55:59.709Z,45.02
2022-09-23T07:59:05.531Z,47.36
2022-09-23T08:02:09.750Z,45.75
2022-09-23T08:05:12.549Z,47.98
2022-09-23T08:08:16.019Z,43.57
2022-09-23T08:11:19.172Z,40.58
2022-09-23T08:14:24.961Z,40.04
2022-09-23T08:17:27.813Z,36.62
2022-09-23T08:20:47.351Z,35.23
2022-09-23T08:23:51.736Z,36.92
2022-09-23T08:26:55.836Z,35.90
2022-09-23T08:29:58.593Z,34.71
2022-09-23T08:33:01.070Z,32.18
2022-09-23T08:36:04.079Z,35.08
2022-09-23T08:39:06.864Z,32.53
2022-09-23T08:42:27.616Z,33.31
2022-09-23T08:45:30.743Z,35.33
2022-09-23T08:48:52.529Z,41.89
2022-09-23T08:51:56.086Z,48.07
2022-09-23T08:55:01.170Z,53.28
2022-09-23T08:58:35.212Z,53.76
2022-09-23T09:01:44.431Z,59.02
2022-09-23T09:04:58.079Z,60.62
2022-09-23T09:08:03.752Z,63.02
2022-09-23T09:11:07.078Z,63.46
2022-09-23T09:14:30.088Z,63.33
2022-09-23T09:17:38.869Z,62.20
2022-09-23T09:21:08.540Z,62.98
2022-09-23T09:24:33.671Z,64.47
2022-09-23T09:27:40.733Z,65.02
2022-09-23T09:30:48.385Z,66.52
2022-09-23T09:33:59.347Z,66.97
2022-09-23T09:37:18.812Z,68.62
2022-09-23T09:40:21.763Z,66.84
2022-09-23T09:43:24.618Z,63.16
2022-09-23T09:46:50.511Z,63.08
2022-09-23T09:50:05.678Z,64.73
2022-09-23T09:53:28.214Z,62.18
2022-09-23T09:56:36.262Z,60.25
2022-09-23T09:59:44.154Z,60.46
2022-09-23T10:03:14.486Z,60.48
2022-09-23T10:06:24.426Z,59.36
2022-09-23T10:09:34.194Z,59.39
2022-09-23T10:12:43.858Z,57.68
2022-09-23T10:15:47.289Z,57.11
2022-09-23T10:18:55.771Z,56.47
2022-09-23T10:22:09.165Z,56.34
2022-09-23T10:25:26.746Z,58.29
2022-09-23T10:28:44.085Z,59.10
2022-09-23T10:31:46.886Z,58.58
2022-09-23T10:34:53.223Z,55.96
2022-09-23T10:38:02.296Z,56.15
2022-09-23T10:41:30.439Z,55.21
2022-09-23T10:45:26.496Z,55.78
2022-09-23T10:49:10.036Z,56.34
2022-09-23T10:52:22.384Z,56.05
2022-09-23T10:55:40.651Z,48.52
2022-09-23T10:59:12.606Z,37.64
2022-09-23T11:02:23.795Z,28.56
2022-09-23T11:05:36.443Z,30.22
2022-09-23T11:09:03.047Z,32.50
2022-09-23T11:12:14.865Z,31.83
2022-09-23T11:15:49.408Z,33.93
2022-09-23T11:19:26.755Z,37.65
2022-09-23T11:22:53.854Z,39.18
2022-09-23T11:26:19.026Z,39.71
2022-09-23T11:29:22.302Z,38.40
2022-09-23T11:32:31.560Z,33.50
2022-09-23T11:35:41.650Z,32.33
2022-09-23T11:38:48.884Z,27.69
2022-09-23T11:41:59.835Z,26.06
2022-09-23T11:45:13.019Z,23.03
2022-09-23T11:48:23.957Z,27.66
2022-09-23T11:51:32.026Z,26.94
2022-09-23T11:54:40.131Z,23.40
2022-09-23T11:57:49.516Z,24.26
2022-09-23T12:01:01.208Z,21.49
2022-09-23T12:04:19.580Z,23.75
2022-09-23T12:07:29.089Z,21.99
2022-09-23T12:11:00.572Z,25.50
2022-09-23T12:14:29.443Z,23.51
2022-09-23T12:17:37.990Z,23.71
2022-09-23T12:20:43.456Z,20.07
2022-09-23T12:24:07.672Z,27.23
2022-09-23T12:27:24.515Z,29.88
2022-09-23T12:30:32.201Z,30.21
2022-09-23T12:33:40.065Z,25.99
2022-09-23T12:36:49.492Z,22.81
2022-09-23T12:39:52.766Z,25.13
2022-09-23T12:42:56.247Z,26.47
2022-09-23T12:46:20.214Z,29.57
2022-09-23T12:49:25.261Z,29.84
2022-09-23T12:52:33.603Z,24.15
2022-09-23T12:55:36.353Z,19.90
2022-09-23T12:58:42.677Z,18.94
2022-09-23T13:01:45.804Z,18.22
2022-09-23T13:05:27.644Z,18.42
2022-09-23T13:08:34.077Z,20.85
2022-09-23T13:11:40.382Z,21.30
2022-09-23T13:14:46.545Z,21.38
2022-09-23T13:17:49.056Z,25.90
2022-09-23T13:20:54.932Z,29.26
2022-09-23T13:24:18.677Z,32.86
2022-09-23T13:27:31.004Z,36.42
2022-09-23T13:30:34.635Z,38.09
2022-09-23T13:33:46.809Z,39.99
2022-09-23T13:36:49.445Z,41.05
2022-09-23T13:39:52.104Z,39.44
2022-09-23T13:43:01.244Z,40.07
2022-09-23T13:46:10.318Z,40.03
2022-09-23T13:49:24.680Z,43.48
2022-09-23T13:52:31.802Z,43.95
2022-09-23T13:55:39.250Z,35.63
2022-09-23T13:58:45.088Z,27.51
2022-09-23T14:02:09.743Z,21.67
2022-09-23T14:05:24.230Z,26.94
2022-09-23T14:08:28.314Z,32.76
2022-09-23T14:11:35.162Z,37.70
2022-09-23T14:14:40.861Z,39.34
2022-09-23T14:17:49.530Z,41.54
2022-09-23T14:20:51.930Z,45.50
2022-09-23T14:23:55.574Z,47.88
2022-09-23T14:27:12.063Z,49.19
2022-09-23T14:30:18.560Z,48.33
2022-09-23T14:33:39.258Z,49.63
2022-09-23T14:37:01.564Z,47.67
2022-09-23T14:40:10.953Z,47.32
2022-09-23T14:43:23.273Z,46.53
2022-09-23T14:46:31.385Z,47.18
2022-09-23T14:49:34.187Z,48.65
2022-09-23T14:52:36.661Z,47.44
2022-09-23T14:55:41.494Z,48.36
2022-09-23T14:58:51.905Z,47.45
2022-09-23T15:01:54.984Z,46.90
2022-09-23T15:05:18.260Z,47.52
2022-09-23T15:08:23.610Z,49.62
2022-09-23T15:11:26.343Z,50.03
2022-09-23T15:14:39.751Z,48.72
2022-09-23T15:17:44.196Z,48.92
2022-09-23T15:20:52.325Z,49.38
2022-09-23T15:23:57.554Z,50.56
2022-09-23T15:27:00.424Z,51.13
2022-09-23T15:30:17.385Z,51.76
2022-09-23T15:33:25.048Z,51.97
2022-09-23T15:36:28.769Z,49.72
2022-09-23T15:39:36.236Z,50.39
2022-09-23T15:42:39.725Z,52.88
2022-09-23T15:46:04.690Z,49.77
2022-09-23T15:49:16.107Z,50.44
2022-09-23T15:52:22.718Z,51.14
2022-09-23T15:55:25.352Z,50.54
2022-09-23T15:58:28.171Z,51.59
2022-09-23T16:01:33.225Z,52.79
2022-09-23T16:04:36.244Z,50.42
2022-09-23T16:07:38.700Z,52.96
2022-09-23T16:10:42.910Z,53.43
2022-09-23T16:13:45.660Z,52.91
2022-09-23T16:16:48.557Z,52.45
2022-09-23T16:19:50.974Z,53.30
2022-09-23T16:22:57.822Z,50.02
2022-09-23T16:26:13.888Z,50.74
2022-09-23T16:29:16.874Z,51.91
2022-09-23T16:32:22.248Z,53.15
2022-09-23T16:35:27.926Z,51.49
2022-09-23T16:38:31.967Z,51.50
2022-09-23T16:41:35.018Z,52.05
2022-09-23T16:44:41.486Z,52.41
2022-09-23T16:47:46.452Z,52.74
2022-09-23T16:50:48.922Z,53.61
2022-09-23T16:53:51.973Z,54.34
2022-09-23T16:56:55.152Z,55.55
2022-09-23T17:00:16.704Z,56.14
2022-09-23T17:03:37.918Z,57.59
2022-09-23T17:06:44.555Z,58.78
2022-09-23T17:09:46.965Z,59.70
2022-09-23T17:12:50.587Z,61.61
2022-09-23T17:15:54.011Z,62.23
2022-09-23T17:18:57.371Z,62.75
2022-09-23T17:22:00.001Z,63.21
2022-09-23T17:25:03.814Z,64.80
2022-09-23T17:28:06.342Z,66.50
2022-09-23T17:31:09.691Z,68.06
2022-09-23T17:34:12.232Z,68.81
2022-09-23T17:37:15.126Z,69.45
2022-09-23T17:40:18.015Z,69.89
2022-09-23T17:43:25.060Z,69.88
2022-09-23T17:46:30.058Z,71.47
2022-09-23T17:49:35.215Z,71.70
2022-09-23T17:52:37.809Z,72.08
2022-09-23T17:55:40.940Z,72.57
2022-09-23T17:58:44.683Z,73.62
2022-09-23T18:01:47.452Z,73.93
2022-09-23T18:04:50.227Z,74.84
2022-09-23T18:07:52.613Z,75.48
2022-09-23T18:10:55.425Z,77.61
2022-09-23T18:14:04.111Z,78.93
2022-09-23T18:17:06.824Z,79.38
2022-09-23T18:20:09.913Z,80.96
2022-09-23T18:23:12.672Z,81.96
2022-09-23T18:26:16.750Z,84.10
2022-09-23T18:29:19.727Z,85.66
2022-09-23T18:32:22.197Z,85.47
2022-09-23T18:35:25.477Z,85.99
2022-09-23T18:38:28.156Z,85.54
2022-09-23T18:41:31.461Z,84.77
2022-09-23T18:44:33.901Z,85.26
2022-09-23T18:47:55.331Z,84.86
2022-09-23T18:50:57.839Z,84.47
2022-09-23T18:54:02.849Z,84.41
2022-09-23T18:57:05.323Z,85.73
2022-09-23T19:00:09.802Z,85.62
2022-09-23T19:03:12.232Z,85.15
2022-09-23T19:06:21.149Z,85.15
2022-09-23T19:09:24.168Z,85.41
2022-09-23T19:12:27.171Z,85.24
2022-09-23T19:15:29.676Z,85.37
2022-09-23T19:18:33.772Z,85.34
2022-09-23T19:21:37.021Z,85.45
2022-09-23T19:24:39.849Z,86.00
2022-09-23T19:27:42.395Z,86.84
2022-09-23T19:30:45.309Z,87.25
2022-09-23T19:33:58.425Z,87.27
2022-09-23T19:37:04.523Z,87.94
2022-09-23T19:40:07.938Z,87.91
2022-09-23T19:43:10.785Z,88.39
2022-09-23T19:46:13.495Z,89.12
2022-09-23T19:49:19.823Z,89.64
2022-09-23T19:52:22.797Z,90.56
2022-09-23T19:55:25.585Z,91.05
2022-09-23T19:58:28.038Z,91.18
2022-09-23T20:01:31.989Z,91.60
2022-09-23T20:04:36.111Z,92.88
2022-09-23T20:07:41.076Z,91.48
2022-09-23T20:10:44.360Z,88.92
2022-09-23T20:13:48.144Z,88.21
2022-09-23T20:16:51.939Z,89.58
2022-09-23T20:19:54.334Z,91.10
2022-09-23T20:22:56.943Z,92.55
2022-09-23T20:26:19.734Z,91.68
2022-09-23T20:29:22.499Z,91.93
2022-09-23T20:32:25.198Z,91.84
2022-09-23T20:35:33.124Z,91.98
2022-09-23T20:38:36.623Z,92.51
2022-09-23T20:41:39.708Z,93.31
2022-09-23T20:44:43.417Z,93.71
2022-09-23T20:47:46.225Z,93.47
2022-09-23T20:50:51.220Z,94.62
2022-09-23T20:53:54.046Z,94.81
2022-09-23T20:56:57.119Z,95.94
2022-09-23T20:59:59.907Z,96.92
2022-09-23T21:03:02.658Z,97.35
2022-09-23T21:06:06.816Z,98.83
2022-09-23T21:09:09.254Z,99.00
2022-09-23T21:12:11.930Z,100.00
2022-09-23T21:15:14.359Z,100.00
2022-09-23T21:18:23.228Z,100.00
2022-09-23T21:21:26.021Z,100.00
2022-09-23T21:25:12.137Z,100.00
2022-09-23T21:27:54.111Z,100.00
2022-09-23T21:31:05.746Z,100.00
2022-09-23T21:34:11.190Z,100.00
2022-09-23T21:37:14.073Z,100.00
2022-09-23T21:40:35.071Z,100.00
2022-09-23T21:43:40.429Z,100.00
2022-09-23T21:46:43.329Z,100.00
2022-09-23T21:49:50.610Z,100.00
2022-09-23T21:52:53.488Z,100.00
2022-09-23T21:56:07.002Z,100.00
2022-09-23T21:59:10.052Z,100.00
2022-09-23T22:02:12.719Z,100.00
2022-09-23T22:05:15.457Z,100.00
2022-09-23T22:08:17.822Z,100.00
2022-09-23T22:11:41.058Z,100.00
2022-09-23T22:14:43.607Z,100.00
2022-09-23T22:17:48.078Z,100.00
2022-09-23T22:20:50.742Z,100.00
2022-09-23T22:23:54.887Z,100.00
2022-09-23T22:26:57.330Z,100.00
2022-09-23T22:30:18.828Z,100.00
2022-09-23T22:33:22.023Z,100.00
2022-09-23T22:36:24.886Z,100.00
2022-09-23T22:39:29.738Z,100.00
2022-09-23T22:42:37.849Z,100.00
2022-09-23T22:45:49.548Z,100.00
2022-09-23T22:48:53.244Z,100.00
2022-09-23T22:51:55.819Z,100.00
2022-09-23T22:54:58.593Z,100.00
2022-09-23T22:58:15.359Z,100.00
2022-09-23T23:01:23.791Z,100.00
2022-09-23T23:04:27.006Z,100.00
2022-09-23T23:07:29.754Z,100.00
2022-09-23T23:10:32.565Z,100.00
2022-09-23T23:13:35.667Z,100.00
2022-09-23T23:16:38.990Z,100.00
2022-09-23T23:19:41.753Z,100.00
2022-09-23T23:22:44.247Z,100.00
2022-09-23T23:25:46.969Z,100.00
2022-09-23T23:28:51.583Z,100.00
2022-09-23T23:31:54.430Z,100.00
2022-09-23T23:34:56.965Z,100.00
2022-09-23T23:37:59.703Z,100.00
2022-09-23T23:41:03.223Z,100.00
2022-09-23T23:44:07.049Z,100.00
2022-09-23T23:47:09.518Z,100.00
2022-09-23T23:50:12.270Z,100.00
2022-09-23T23:53:14.722Z,100.00
2022-09-23T23:56:20.548Z,100.00
2022-09-23T23:59:23.066Z,100.00
